Search for airport 
image banner adimage banner adimage banner ad
image banner ad

N86 - Spanish Springs

Located in Reno, United States

ICAO - N86, IATA -

Data provided by Airmate  

General information

Coordinates: N39°40'16" W119°43'31"
Elevation is 4620 feet MSL.
Magnetic variation is 16° East
View others Airports in Nevada

Operational data

Special qualification required
Current time UTC:
Current local time:
Weather at : KRTS - Reno/Stead ( 13 km )
METAR: KRTS 130315Z AUTO 30009G16KT 10SM CLR 22/03 A3003 RMK AO2
View NOTAMs / SUP AIP / TFR affecting this airport [VIEW]
Communications frequencies: [VIEW]

Runways:

RWY identifierQFULength (ft)Width (ft)SurfaceLDA (ft)
17341860EARTH
35341860EARTH

Airport contact information

Address: Reno United States

Satellite view of N86